Time;durP1;ratioP1;P1;durP2;ratioP2;P2;SDS_P1;SDS_P2;PMS_P1;PMS_P2;Temp;Humidity;BMP_temperature;BMP_pressure;BME280_temperature;BME280_humidity;BME280_pressure;Samples;Min_cycle;Max_cycle;Signal;HPM_P1;HPM_P2
2022/07/12 00:00:52;;;;;;;;;;;15.40;99.90;;;;;;5074652;28;20001;-70
2022/07/12 00:03:18;;;;;;;;;;;15.30;99.90;;;;;;5075014;28;20302;-70
2022/07/12 00:05:43;;;;;;;;;;;15.30;99.90;;;;;;5074844;28;19911;-70
2022/07/12 00:08:09;;;;;;;;;;;15.30;99.90;;;;;;5074878;28;19943;-70
2022/07/12 00:10:34;;;;;;;;;;;15.30;99.90;;;;;;5073313;28;19950;-70
2022/07/12 00:13:00;;;;;;;;;;;15.30;99.90;;;;;;5074814;28;20277;-70
2022/07/12 00:15:26;;;;;;;;;;;15.30;99.90;;;;;;5074321;28;19916;-70
2022/07/12 00:17:51;;;;;;;;;;;15.40;99.90;;;;;;5074770;28;19912;-70
2022/07/12 00:20:17;;;;;;;;;;;15.40;99.90;;;;;;5074255;28;19915;-70
2022/07/12 00:22:42;;;;;;;;;;;15.40;99.90;;;;;;5074595;28;19908;-70
2022/07/12 00:25:08;;;;;;;;;;;15.40;99.90;;;;;;5074193;28;19957;-70
2022/07/12 00:27:34;;;;;;;;;;;15.40;99.90;;;;;;5074266;28;19905;-70
2022/07/12 00:29:59;;;;;;;;;;;15.40;99.90;;;;;;5074221;28;20277;-70
2022/07/12 00:32:25;;;;;;;;;;;15.40;99.90;;;;;;5074486;28;19911;-70
2022/07/12 00:34:50;;;;;;;;;;;15.40;99.90;;;;;;5073996;28;19995;-70
2022/07/12 00:37:16;;;;;;;;;;;15.30;99.90;;;;;;5074119;28;19908;-70
2022/07/12 00:39:41;;;;;;;;;;;15.30;99.90;;;;;;5074014;28;19908;-70
2022/07/12 00:42:07;;;;;;;;;;;15.30;99.90;;;;;;5074073;28;19904;-70
2022/07/12 00:44:33;;;;;;;;;;;15.30;99.90;;;;;;5073944;28;20288;-70
2022/07/12 00:47:02;;;;;;;;;;;15.20;99.90;;;;;;5074015;28;20039;-71
2022/07/12 00:49:28;;;;;;;;;;;15.30;99.90;;;;;;5074115;28;20361;-70
2022/07/12 00:51:56;;;;;;;;;;;15.30;99.90;;;;;;5073973;28;19904;-70
2022/07/12 00:54:22;;;;;;;;;;;15.20;99.90;;;;;;5073893;28;19904;-71
2022/07/12 00:56:48;;;;;;;;;;;15.30;99.90;;;;;;5073901;28;19995;-71
2022/07/12 00:59:14;;;;;;;;;;;15.20;99.90;;;;;;5073842;28;19905;-71
2022/07/12 01:01:41;;;;;;;;;;;15.20;99.90;;;;;;5074102;28;19969;-71
2022/07/12 01:04:06;;;;;;;;;;;15.20;99.90;;;;;;5071666;28;19935;-70
2022/07/12 01:06:32;;;;;;;;;;;15.10;99.90;;;;;;5071589;28;19905;-70
2022/07/12 01:09:01;;;;;;;;;;;15.10;99.90;;;;;;5072544;28;19904;-71
2022/07/12 01:11:26;;;;;;;;;;;15.00;99.90;;;;;;5072435;28;20335;-70
2022/07/12 01:13:52;;;;;;;;;;;15.00;99.90;;;;;;5073267;28;19904;-71
2022/07/12 01:16:19;;;;;;;;;;;14.90;99.90;;;;;;5073136;28;20268;-70
2022/07/12 01:18:45;;;;;;;;;;;14.90;99.90;;;;;;5074003;28;19908;-70
2022/07/12 01:21:12;;;;;;;;;;;14.80;99.90;;;;;;5073583;28;19934;-70
2022/07/12 01:23:38;;;;;;;;;;;14.70;99.90;;;;;;5073825;28;19904;-71
2022/07/12 01:26:04;;;;;;;;;;;14.70;99.90;;;;;;5073642;28;19905;-71
2022/07/12 01:28:29;;;;;;;;;;;14.60;99.90;;;;;;5073589;28;20387;-70
2022/07/12 01:30:55;;;;;;;;;;;14.60;99.90;;;;;;5073555;28;20368;-70
2022/07/12 01:33:20;;;;;;;;;;;14.60;99.90;;;;;;5073838;28;20254;-70
2022/07/12 01:35:46;;;;;;;;;;;14.50;99.90;;;;;;5073335;28;19916;-70
2022/07/12 01:38:12;;;;;;;;;;;14.50;99.90;;;;;;5073769;28;19970;-70
2022/07/12 01:40:38;;;;;;;;;;;14.50;99.90;;;;;;5073672;28;19999;-71
2022/07/12 01:43:04;;;;;;;;;;;14.40;99.90;;;;;;5073727;28;20006;-70
2022/07/12 01:45:29;;;;;;;;;;;14.30;99.90;;;;;;5073317;28;19904;-70
2022/07/12 01:47:58;;;;;;;;;;;14.30;99.90;;;;;;5073659;28;20375;-70
2022/07/12 01:50:24;;;;;;;;;;;14.30;99.90;;;;;;5073654;28;19908;-70
2022/07/12 01:52:49;;;;;;;;;;;14.30;99.90;;;;;;5073248;28;19910;-70
2022/07/12 01:55:15;;;;;;;;;;;14.20;99.90;;;;;;5073360;28;19905;-70
2022/07/12 01:57:41;;;;;;;;;;;14.20;99.90;;;;;;5073592;28;19904;-70
2022/07/12 02:00:07;;;;;;;;;;;14.20;99.90;;;;;;5073178;28;19919;-71
2022/07/12 02:02:33;;;;;;;;;;;14.20;99.90;;;;;;5076099;28;19972;-70
2022/07/12 02:05:00;;;;;;;;;;;14.20;99.90;;;;;;5076854;28;19936;-71
2022/07/12 02:07:25;;;;;;;;;;;14.10;99.90;;;;;;5076948;28;20016;-70
2022/07/12 02:09:51;;;;;;;;;;;14.20;99.90;;;;;;5077442;28;20428;-70
2022/07/12 02:12:16;;;;;;;;;;;14.10;99.90;;;;;;5077164;28;19916;-70
2022/07/12 02:14:42;;;;;;;;;;;14.00;99.90;;;;;;5076733;28;19904;-70
2022/07/12 02:17:07;;;;;;;;;;;14.00;99.90;;;;;;5075496;28;19992;-71
2022/07/12 02:19:33;;;;;;;;;;;13.90;99.90;;;;;;5075609;28;19909;-70
2022/07/12 02:21:59;;;;;;;;;;;13.90;99.90;;;;;;5076685;28;20361;-71
2022/07/12 02:24:24;;;;;;;;;;;13.80;99.90;;;;;;5076857;28;19911;-71
2022/07/12 02:26:50;;;;;;;;;;;13.80;99.90;;;;;;5076833;28;20379;-70
2022/07/12 02:29:15;;;;;;;;;;;13.70;99.90;;;;;;5076522;28;19912;-70
2022/07/12 02:31:41;;;;;;;;;;;13.60;99.90;;;;;;5076738;28;19908;-70
2022/07/12 02:34:06;;;;;;;;;;;13.60;99.90;;;;;;5076348;28;19916;-71
2022/07/12 02:36:33;;;;;;;;;;;13.60;99.90;;;;;;5075112;28;19908;-71
2022/07/12 02:39:02;;;;;;;;;;;13.60;99.90;;;;;;5075397;28;19942;-70
2022/07/12 02:41:28;;;;;;;;;;;13.50;99.90;;;;;;5076559;28;19943;-71
2022/07/12 02:43:55;;;;;;;;;;;13.50;99.90;;;;;;5076147;28;20376;-71
2022/07/12 02:46:20;;;;;;;;;;;13.60;99.90;;;;;;5076807;28;19966;-71
2022/07/12 02:48:46;;;;;;;;;;;13.60;99.90;;;;;;5076802;28;19909;-71
2022/07/12 02:51:12;;;;;;;;;;;13.70;99.90;;;;;;5076207;28;19912;-70
2022/07/12 02:53:37;;;;;;;;;;;13.70;99.90;;;;;;5076093;28;19904;-70
2022/07/12 02:56:03;;;;;;;;;;;13.70;99.90;;;;;;5076336;28;19943;-70
2022/07/12 02:58:29;;;;;;;;;;;13.80;99.90;;;;;;5076334;28;19911;-70
2022/07/12 03:00:54;;;;;;;;;;;13.70;99.90;;;;;;5075929;28;19940;-70
2022/07/12 03:03:20;;;;;;;;;;;13.60;99.90;;;;;;5075911;28;19927;-70
2022/07/12 03:05:46;;;;;;;;;;;13.50;99.90;;;;;;5076076;28;19905;-70
2022/07/12 03:08:12;;;;;;;;;;;13.40;99.90;;;;;;5075856;28;19998;-70
2022/07/12 03:10:38;;;;;;;;;;;13.40;99.90;;;;;;5075782;28;19911;-70
2022/07/12 03:13:04;;;;;;;;;;;13.30;99.90;;;;;;5075430;28;19905;-71
2022/07/12 03:15:30;;;;;;;;;;;13.30;99.90;;;;;;5074607;28;19912;-70
2022/07/12 03:17:56;;;;;;;;;;;13.30;99.90;;;;;;5075624;28;20364;-71
2022/07/12 03:20:22;;;;;;;;;;;13.40;99.90;;;;;;5074234;28;19915;-70
2022/07/12 03:22:49;;;;;;;;;;;13.50;99.90;;;;;;5075809;28;19904;-71
2022/07/12 03:25:16;;;;;;;;;;;13.50;99.90;;;;;;5075440;28;19952;-71
2022/07/12 03:27:41;;;;;;;;;;;13.60;99.90;;;;;;5075396;28;19970;-71
2022/07/12 03:30:08;;;;;;;;;;;13.60;99.90;;;;;;5075378;28;20352;-71
2022/07/12 03:32:33;;;;;;;;;;;13.70;99.90;;;;;;5075707;28;19904;-71
2022/07/12 03:34:59;;;;;;;;;;;13.70;99.90;;;;;;5075247;28;19970;-71
2022/07/12 03:37:24;;;;;;;;;;;13.80;99.90;;;;;;5075524;28;20356;-71
2022/07/12 03:39:50;;;;;;;;;;;13.70;99.90;;;;;;5075119;28;19915;-71
2022/07/12 03:42:15;;;;;;;;;;;13.70;99.90;;;;;;5075175;28;19911;-71
2022/07/12 03:44:41;;;;;;;;;;;13.60;99.90;;;;;;5075002;28;19943;-71
2022/07/12 03:47:06;;;;;;;;;;;13.60;99.90;;;;;;5074989;28;20313;-71
2022/07/12 03:49:32;;;;;;;;;;;13.50;99.90;;;;;;5075259;28;19904;-71
2022/07/12 03:51:57;;;;;;;;;;;13.40;99.90;;;;;;5074910;28;19904;-71
2022/07/12 03:54:23;;;;;;;;;;;13.30;99.90;;;;;;5074846;28;19904;-70
2022/07/12 03:59:33;;;;;;;;;;;13.30;99.90;;;;;;5074768;28;19916;-71
2022/07/12 04:01:58;;;;;;;;;;;13.30;99.90;;;;;;5075041;28;19904;-71
2022/07/12 04:04:24;;;;;;;;;;;13.30;99.90;;;;;;5074611;28;19904;-71
2022/07/12 04:06:49;;;;;;;;;;;13.40;99.90;;;;;;5074602;28;19991;-71
2022/07/12 04:09:15;;;;;;;;;;;13.50;99.90;;;;;;5074891;28;19904;-71
2022/07/12 04:11:41;;;;;;;;;;;13.50;99.90;;;;;;5073290;28;19911;-71
2022/07/12 04:14:06;;;;;;;;;;;13.50;99.90;;;;;;5074655;28;19912;-71
2022/07/12 04:16:32;;;;;;;;;;;13.50;99.90;;;;;;5074509;28;19911;-71
2022/07/12 04:18:58;;;;;;;;;;;13.60;99.90;;;;;;5074407;28;19909;-71
2022/07/12 04:21:23;;;;;;;;;;;13.60;99.90;;;;;;5074573;28;19916;-71
2022/07/12 04:23:49;;;;;;;;;;;13.60;99.90;;;;;;5073605;28;19905;-71
2022/07/12 04:26:15;;;;;;;;;;;13.60;99.90;;;;;;5074319;28;19904;-71
2022/07/12 04:28:40;;;;;;;;;;;13.70;99.90;;;;;;5074247;28;19998;-71
2022/07/12 04:31:09;;;;;;;;;;;13.70;99.90;;;;;;5074496;28;19908;-70
2022/07/12 04:33:35;;;;;;;;;;;13.70;99.90;;;;;;5074253;28;19904;-70
2022/07/12 04:36:00;;;;;;;;;;;13.70;99.90;;;;;;5074530;28;20045;-70
2022/07/12 04:38:26;;;;;;;;;;;13.70;99.90;;;;;;5074204;28;19904;-70
2022/07/12 04:40:52;;;;;;;;;;;13.70;99.90;;;;;;5074071;28;19965;-71
2022/07/12 04:43:17;;;;;;;;;;;13.70;99.90;;;;;;5074224;28;20293;-71
2022/07/12 04:45:45;;;;;;;;;;;13.80;99.90;;;;;;5074302;28;19910;-71
2022/07/12 04:48:11;;;;;;;;;;;13.80;99.90;;;;;;5074351;28;19908;-71
2022/07/12 04:50:37;;;;;;;;;;;13.90;99.90;;;;;;5074253;28;20307;-71
2022/07/12 04:53:03;;;;;;;;;;;13.90;99.90;;;;;;5074241;28;19904;-71
2022/07/12 04:55:28;;;;;;;;;;;14.00;99.90;;;;;;5072611;28;19908;-71
2022/07/12 04:57:54;;;;;;;;;;;14.00;99.90;;;;;;5072617;28;19904;-71
2022/07/12 05:00:20;;;;;;;;;;;14.10;99.90;;;;;;5074028;28;20348;-71
2022/07/12 05:02:46;;;;;;;;;;;14.10;99.90;;;;;;5073835;28;19911;-71
2022/07/12 05:05:11;;;;;;;;;;;14.10;99.90;;;;;;5073733;28;20435;-71
2022/07/12 05:07:37;;;;;;;;;;;14.20;99.90;;;;;;5072546;28;19916;-71
2022/07/12 05:10:02;;;;;;;;;;;14.10;99.90;;;;;;5074034;28;19904;-71
2022/07/12 05:12:28;;;;;;;;;;;14.20;99.90;;;;;;5074038;28;19905;-71
2022/07/12 05:14:53;;;;;;;;;;;14.20;99.90;;;;;;5073706;28;19953;-71
2022/07/12 05:17:19;;;;;;;;;;;14.20;99.90;;;;;;5073697;28;20336;-71
2022/07/12 05:19:45;;;;;;;;;;;14.30;99.90;;;;;;5072416;28;19909;-71
2022/07/12 05:22:10;;;;;;;;;;;14.40;99.90;;;;;;5073659;28;19904;-71
2022/07/12 05:24:36;;;;;;;;;;;14.40;99.90;;;;;;5073590;28;19904;-71
2022/07/12 05:27:01;;;;;;;;;;;14.40;99.90;;;;;;5073611;28;20307;-71
2022/07/12 05:29:27;;;;;;;;;;;14.50;99.90;;;;;;5073919;28;19908;-71
2022/07/12 05:31:56;;;;;;;;;;;14.50;99.90;;;;;;5073587;28;19904;-71
2022/07/12 05:34:22;;;;;;;;;;;14.50;99.90;;;;;;5073643;28;19919;-71
2022/07/12 05:36:47;;;;;;;;;;;14.60;99.90;;;;;;5076995;28;19908;-71
2022/07/12 05:39:13;;;;;;;;;;;14.60;99.90;;;;;;5077484;28;19995;-71
2022/07/12 05:41:38;;;;;;;;;;;14.70;99.90;;;;;;5078024;28;19943;-71
2022/07/12 05:44:04;;;;;;;;;;;14.70;99.90;;;;;;5077630;28;19904;-71
2022/07/12 05:46:30;;;;;;;;;;;14.70;99.90;;;;;;5076109;28;19904;-71
2022/07/12 05:48:56;;;;;;;;;;;14.80;99.90;;;;;;5077315;28;19905;-71
2022/07/12 05:54:05;;;;;;;;;;;14.90;99.90;;;;;;5077439;28;19912;-71
2022/07/12 05:56:31;;;;;;;;;;;15.00;99.90;;;;;;5077431;28;19904;-71
2022/07/12 05:58:56;;;;;;;;;;;15.10;99.90;;;;;;5075824;28;19955;-71
2022/07/12 06:01:22;;;;;;;;;;;15.20;99.90;;;;;;5077288;28;19952;-71
2022/07/12 06:03:47;;;;;;;;;;;15.30;99.90;;;;;;5076969;28;19998;-71
2022/07/12 06:06:13;;;;;;;;;;;15.40;99.90;;;;;;5076955;28;19958;-71
2022/07/12 06:08:39;;;;;;;;;;;15.50;99.90;;;;;;5076914;28;19950;-70
2022/07/12 06:11:04;;;;;;;;;;;15.60;99.90;;;;;;5077229;28;19909;-71
2022/07/12 06:13:30;;;;;;;;;;;15.70;99.90;;;;;;5077370;28;19927;-72
2022/07/12 06:15:56;;;;;;;;;;;15.80;99.90;;;;;;5076812;28;19995;-71
2022/07/12 06:18:21;;;;;;;;;;;15.90;99.90;;;;;;5077382;28;19911;-70
2022/07/12 06:20:47;;;;;;;;;;;15.90;99.90;;;;;;5075351;28;20481;-71
2022/07/12 06:23:12;;;;;;;;;;;16.00;99.90;;;;;;5077003;28;19904;-71
2022/07/12 06:25:38;;;;;;;;;;;16.10;99.90;;;;;;5077576;28;19904;-71
2022/07/12 06:28:04;;;;;;;;;;;16.10;99.90;;;;;;5076914;28;19989;-71
2022/07/12 06:30:30;;;;;;;;;;;16.20;99.90;;;;;;5076838;28;19904;-71
2022/07/12 06:32:55;;;;;;;;;;;16.20;99.90;;;;;;5076483;28;19912;-71
2022/07/12 06:35:21;;;;;;;;;;;16.30;99.90;;;;;;5076403;28;19945;-71
2022/07/12 06:37:47;;;;;;;;;;;16.40;99.90;;;;;;5076688;28;19995;-71
2022/07/12 06:40:15;;;;;;;;;;;16.50;99.90;;;;;;5076303;28;19908;-71
2022/07/12 06:42:40;;;;;;;;;;;16.50;99.90;;;;;;5076327;28;20256;-71
2022/07/12 06:45:06;;;;;;;;;;;16.60;99.90;;;;;;5076235;28;19927;-71
2022/07/12 06:47:32;;;;;;;;;;;16.60;99.90;;;;;;5075888;28;19998;-71
2022/07/12 06:49:57;;;;;;;;;;;16.70;99.90;;;;;;5076250;28;19954;-71
2022/07/12 06:52:23;;;;;;;;;;;16.80;99.90;;;;;;5076424;28;19911;-71
2022/07/12 06:54:48;;;;;;;;;;;16.90;99.90;;;;;;5074821;28;19905;-71
2022/07/12 06:57:14;;;;;;;;;;;17.10;99.90;;;;;;5076061;28;19911;-71
2022/07/12 06:59:39;;;;;;;;;;;17.20;99.90;;;;;;5075949;28;19908;-71
2022/07/12 07:02:05;;;;;;;;;;;17.30;99.90;;;;;;5075984;28;20360;-71
2022/07/12 07:04:30;;;;;;;;;;;17.40;99.90;;;;;;5074594;28;19904;-71
2022/07/12 07:06:56;;;;;;;;;;;17.50;99.90;;;;;;5075878;28;19905;-70
2022/07/12 07:09:21;;;;;;;;;;;17.50;99.90;;;;;;5076112;28;19904;-70
2022/07/12 07:11:47;;;;;;;;;;;17.50;99.90;;;;;;5071894;28;19915;-71
2022/07/12 07:14:13;;;;;;;;;;;17.50;99.90;;;;;;5067041;28;20353;-70
2022/07/12 07:16:38;;;;;;;;;;;17.60;99.90;;;;;;5061429;28;19905;-71
2022/07/12 07:19:05;;;;;;;;;;;17.80;99.90;;;;;;5056000;28;20349;-70
2022/07/12 07:21:31;;;;;;;;;;;18.00;99.90;;;;;;5055812;28;20296;-70
2022/07/12 07:23:57;;;;;;;;;;;18.10;99.90;;;;;;5055471;28;19954;-71
2022/07/12 07:26:22;;;;;;;;;;;18.30;99.90;;;;;;5069400;28;19908;-71
2022/07/12 07:31:36;;;;;;;;;;;18.50;99.90;;;;;;5069215;28;19916;-71
2022/07/12 07:34:01;;;;;;;;;;;18.70;99.90;;;;;;5061050;28;19909;-72
2022/07/12 07:36:27;;;;;;;;;;;18.80;99.90;;;;;;5053762;28;19916;-72
2022/07/12 07:38:53;;;;;;;;;;;18.80;99.90;;;;;;5053173;28;19912;-72
2022/07/12 07:41:18;;;;;;;;;;;18.90;99.90;;;;;;5053051;28;19909;-71
2022/07/12 07:43:44;;;;;;;;;;;19.00;99.90;;;;;;5053082;28;20357;-71
2022/07/12 07:46:09;;;;;;;;;;;19.00;99.90;;;;;;5053152;28;19900;-71
2022/07/12 07:48:35;;;;;;;;;;;19.00;99.90;;;;;;5053010;28;20077;-71
2022/07/12 07:51:00;;;;;;;;;;;19.00;99.90;;;;;;5053199;28;20307;-71
2022/07/12 07:53:26;;;;;;;;;;;19.10;99.90;;;;;;5055220;28;19904;-71
2022/07/12 07:55:51;;;;;;;;;;;19.00;99.90;;;;;;5054827;28;19904;-71
2022/07/12 07:58:17;;;;;;;;;;;19.10;99.90;;;;;;5054269;28;19940;-71
2022/07/12 08:00:42;;;;;;;;;;;19.20;99.90;;;;;;5054282;28;19999;-71
2022/07/12 08:03:08;;;;;;;;;;;19.30;99.90;;;;;;5054755;28;19904;-70
2022/07/12 08:05:33;;;;;;;;;;;19.60;99.90;;;;;;5054667;28;19912;-70
2022/07/12 08:07:59;;;;;;;;;;;19.70;99.90;;;;;;5054653;28;20357;-71
2022/07/12 08:10:25;;;;;;;;;;;19.80;99.90;;;;;;5054616;28;19905;-71
2022/07/12 08:12:51;;;;;;;;;;;19.90;99.90;;;;;;5054869;28;20353;-70
2022/07/12 08:15:16;;;;;;;;;;;20.10;99.60;;;;;;5054584;28;19953;-70
2022/07/12 08:17:42;;;;;;;;;;;20.20;99.80;;;;;;5054583;28;20280;-70
2022/07/12 08:20:08;;;;;;;;;;;20.40;99.00;;;;;;5054529;28;20284;-70
2022/07/12 08:22:34;;;;;;;;;;;20.70;98.00;;;;;;5054483;28;19912;-71
2022/07/12 08:24:59;;;;;;;;;;;20.90;97.70;;;;;;5054379;28;19911;-70
2022/07/12 08:27:25;;;;;;;;;;;20.80;96.80;;;;;;5054408;28;19905;-70
2022/07/12 08:29:50;;;;;;;;;;;20.80;95.50;;;;;;5054386;28;19999;-70
2022/07/12 08:32:16;;;;;;;;;;;20.90;94.70;;;;;;5054562;28;19947;-70
2022/07/12 08:34:42;;;;;;;;;;;21.00;93.90;;;;;;5054095;28;19912;-70
2022/07/12 08:37:08;;;;;;;;;;;21.00;93.00;;;;;;5054237;28;20382;-70
2022/07/12 08:39:33;;;;;;;;;;;20.90;93.10;;;;;;5054429;28;19909;-70
2022/07/12 08:41:59;;;;;;;;;;;20.80;94.00;;;;;;5054666;28;19997;-71
2022/07/12 08:44:25;;;;;;;;;;;20.70;94.30;;;;;;5054050;28;19955;-70
2022/07/12 08:46:52;;;;;;;;;;;20.60;94.60;;;;;;5054333;28;19991;-71
2022/07/12 08:49:18;;;;;;;;;;;20.50;95.10;;;;;;5054279;28;20245;-71
2022/07/12 08:51:44;;;;;;;;;;;20.50;95.20;;;;;;5053971;28;19911;-70
2022/07/12 08:54:12;;;;;;;;;;;20.50;95.50;;;;;;5054091;28;19905;-71
2022/07/12 08:56:39;;;;;;;;;;;20.70;95.00;;;;;;5053869;28;19932;-69
2022/07/12 08:59:17;;;;;;;;;;;20.90;95.40;;;;;;5053856;28;19912;-70
2022/07/12 09:01:44;;;;;;;;;;;20.90;94.00;;;;;;5053784;28;19909;-69
2022/07/12 09:04:13;;;;;;;;;;;20.90;94.60;;;;;;5054001;28;19905;-70
2022/07/12 09:06:39;;;;;;;;;;;20.70;94.10;;;;;;5054046;28;19905;-69
2022/07/12 09:09:04;;;;;;;;;;;20.70;94.00;;;;;;5053735;28;19931;-70
2022/07/12 09:11:30;;;;;;;;;;;20.70;93.80;;;;;;5053282;28;20432;-69
2022/07/12 09:13:56;;;;;;;;;;;20.60;94.60;;;;;;5053903;28;19905;-70
2022/07/12 09:16:23;;;;;;;;;;;20.70;94.80;;;;;;5053681;28;19912;-69
2022/07/12 09:18:49;;;;;;;;;;;20.70;94.40;;;;;;5053673;28;19904;-70
2022/07/12 09:21:21;;;;;;;;;;;21.00;95.00;;;;;;5053803;28;20034;-73
2022/07/12 09:23:51;;;;;;;;;;;21.10;94.30;;;;;;5059211;28;20004;-73
2022/07/12 09:26:16;;;;;;;;;;;21.20;94.70;;;;;;5072552;28;19948;-72
2022/07/12 09:28:43;;;;;;;;;;;21.30;94.00;;;;;;5071521;28;20384;-71
2022/07/12 09:31:08;;;;;;;;;;;21.30;93.30;;;;;;5071528;28;19911;-72
2022/07/12 09:36:23;;;;;;;;;;;21.40;93.10;;;;;;5071491;28;19915;-71
2022/07/12 09:38:50;;;;;;;;;;;21.50;93.30;;;;;;5071452;28;20024;-71
2022/07/12 09:41:19;;;;;;;;;;;21.50;92.20;;;;;;5071680;28;19944;-72
2022/07/12 09:43:45;;;;;;;;;;;21.50;92.10;;;;;;5073687;28;19904;-74
2022/07/12 09:46:10;;;;;;;;;;;21.70;93.20;;;;;;5073749;28;19958;-72
2022/07/12 09:48:40;;;;;;;;;;;21.80;92.80;;;;;;5074380;28;19905;-73
2022/07/12 09:51:07;;;;;;;;;;;21.90;93.10;;;;;;5073742;28;20341;-73
2022/07/12 09:53:37;;;;;;;;;;;21.90;91.50;;;;;;5073832;28;19912;-72
2022/07/12 09:56:07;;;;;;;;;;;22.00;92.00;;;;;;5073640;28;19912;-72
2022/07/12 09:58:40;;;;;;;;;;;22.00;91.40;;;;;;5073665;28;19938;-73
2022/07/12 10:01:06;;;;;;;;;;;22.00;92.10;;;;;;5072196;28;19913;-72
2022/07/12 10:03:32;;;;;;;;;;;22.00;91.50;;;;;;5073495;28;19904;-72
2022/07/12 10:05:59;;;;;;;;;;;22.00;91.60;;;;;;5073243;28;19914;-72
2022/07/12 10:08:25;;;;;;;;;;;21.90;91.30;;;;;;5073304;28;19911;-73
2022/07/12 10:10:51;;;;;;;;;;;21.90;92.40;;;;;;5073486;28;19904;-72
2022/07/12 10:13:17;;;;;;;;;;;21.90;91.90;;;;;;5073354;28;19905;-73
2022/07/12 10:15:44;;;;;;;;;;;21.90;91.50;;;;;;5073051;28;19904;-73
2022/07/12 10:18:15;;;;;;;;;;;22.10;91.20;;;;;;5073732;28;19904;-73
2022/07/12 10:20:44;;;;;;;;;;;22.20;91.00;;;;;;5073570;28;19999;-72
2022/07/12 10:23:36;;;;;;;;;;;22.20;90.50;;;;;;5075301;28;19911;-72
2022/07/12 10:26:21;;;;;;;;;;;22.10;91.00;;;;;;5074238;28;19904;-72
2022/07/12 10:28:59;;;;;;;;;;;22.20;90.10;;;;;;5076490;28;19915;-73
2022/07/12 10:31:27;;;;;;;;;;;22.30;90.80;;;;;;5076897;28;19904;-72
2022/07/12 10:33:59;;;;;;;;;;;22.70;89.90;;;;;;5076383;28;19915;-72
2022/07/12 10:36:25;;;;;;;;;;;23.00;87.40;;;;;;5076795;28;19970;-73
2022/07/12 10:39:10;;;;;;;;;;;22.90;86.40;;;;;;5076393;28;20318;-72
2022/07/12 10:41:36;;;;;;;;;;;23.00;85.90;;;;;;5076180;28;19912;-72
2022/07/12 10:44:04;;;;;;;;;;;23.00;85.50;;;;;;5076497;28;19908;-72
2022/07/12 10:46:30;;;;;;;;;;;22.80;85.30;;;;;;5076321;28;19908;-73
2022/07/12 10:49:25;;;;;;;;;;;22.70;85.60;;;;;;5076341;28;19984;-72
2022/07/12 10:52:09;;;;;;;;;;;22.70;82.30;;;;;;5066495;28;19904;-73
2022/07/12 10:54:35;;;;;;;;;;;22.40;85.20;;;;;;5075835;28;20349;-73
2022/07/12 10:57:00;;;;;;;;;;;22.20;84.50;;;;;;5069940;28;19905;-71
2022/07/12 10:59:27;;;;;;;;;;;22.10;85.10;;;;;;5075669;28;19909;-71
2022/07/12 11:01:55;;;;;;;;;;;22.10;85.00;;;;;;5068614;28;19911;-73
2022/07/12 11:04:20;;;;;;;;;;;22.10;83.10;;;;;;5075907;28;19983;-71
2022/07/12 11:06:46;;;;;;;;;;;22.20;85.40;;;;;;5075859;28;20403;-70
2022/07/12 11:09:15;;;;;;;;;;;22.40;86.00;;;;;;5075844;28;20357;-72
2022/07/12 11:11:45;;;;;;;;;;;22.80;87.90;;;;;;5068740;28;20315;-71
2022/07/12 11:14:12;;;;;;;;;;;23.10;84.50;;;;;;5075519;28;19969;-73
2022/07/12 11:16:44;;;;;;;;;;;23.10;83.50;;;;;;5075320;28;19959;-73
2022/07/12 11:19:10;;;;;;;;;;;23.20;83.20;;;;;;5075587;28;19904;-72
2022/07/12 11:21:35;;;;;;;;;;;23.10;80.90;;;;;;5075546;28;19908;-72
2022/07/12 11:24:01;;;;;;;;;;;23.00;82.70;;;;;;5074158;28;20428;-71
2022/07/12 11:26:27;;;;;;;;;;;22.90;83.30;;;;;;5075423;28;19908;-73
2022/07/12 11:28:57;;;;;;;;;;;22.90;83.90;;;;;;5075240;28;19911;-71
2022/07/12 11:31:22;;;;;;;;;;;23.00;85.30;;;;;;5075231;28;19993;-73
2022/07/12 11:33:50;;;;;;;;;;;23.10;82.30;;;;;;5074761;28;21176;-73
2022/07/12 11:36:16;;;;;;;;;;;23.20;84.60;;;;;;5073891;28;20054;-73
2022/07/12 11:38:43;;;;;;;;;;;23.10;81.90;;;;;;5073572;28;19939;-70
2022/07/12 11:41:09;;;;;;;;;;;23.10;82.80;;;;;;5074997;28;19908;-73
2022/07/12 11:43:35;;;;;;;;;;;23.20;80.60;;;;;;5068533;28;19904;-72
2022/07/12 11:46:01;;;;;;;;;;;23.40;80.50;;;;;;5074924;28;19912;-71
2022/07/12 11:48:29;;;;;;;;;;;23.70;81.80;;;;;;5074805;28;19915;-73
2022/07/12 11:50:54;;;;;;;;;;;23.80;78.40;;;;;;5074819;28;19904;-73
2022/07/12 11:53:24;;;;;;;;;;;23.60;78.80;;;;;;5069784;28;19953;-72
2022/07/12 11:55:50;;;;;;;;;;;23.50;82.90;;;;;;5074660;28;20443;-72
2022/07/12 11:58:17;;;;;;;;;;;23.70;83.90;;;;;;5075202;28;19988;-72
2022/07/12 12:00:43;;;;;;;;;;;23.90;81.80;;;;;;5074623;28;19909;-73
2022/07/12 12:03:09;;;;;;;;;;;24.10;80.70;;;;;;5074633;28;19904;-72
2022/07/12 12:05:35;;;;;;;;;;;24.20;78.70;;;;;;5074527;28;19904;-72
2022/07/12 12:08:01;;;;;;;;;;;24.10;76.30;;;;;;5074183;28;19905;-72
2022/07/12 12:10:27;;;;;;;;;;;23.90;80.10;;;;;;5074496;28;20030;-72
2022/07/12 12:12:54;;;;;;;;;;;23.70;79.70;;;;;;5074540;28;20368;-72
2022/07/12 12:15:23;;;;;;;;;;;23.60;81.10;;;;;;5074395;28;20356;-72
2022/07/12 12:17:51;;;;;;;;;;;23.90;81.80;;;;;;5074488;28;20050;-72
2022/07/12 12:20:18;;;;;;;;;;;24.10;80.90;;;;;;5074344;28;19916;-72
2022/07/12 12:22:45;;;;;;;;;;;24.00;74.60;;;;;;5074725;28;19912;-72
2022/07/12 12:25:13;;;;;;;;;;;24.10;81.20;;;;;;5074381;28;19927;-72
2022/07/12 12:27:42;;;;;;;;;;;24.10;77.20;;;;;;5074287;28;19904;-73
2022/07/12 12:30:08;;;;;;;;;;;23.90;75.60;;;;;;5074299;28;20400;-73
2022/07/12 12:32:46;;;;;;;;;;;23.70;75.30;;;;;;5072953;28;19939;-73
2022/07/12 12:35:12;;;;;;;;;;;23.80;78.20;;;;;;5073961;28;19955;-73
2022/07/12 12:37:37;;;;;;;;;;;24.00;78.30;;;;;;5074380;28;20392;-71
2022/07/12 12:40:04;;;;;;;;;;;24.00;76.40;;;;;;5074057;28;19909;-69
2022/07/12 12:42:30;;;;;;;;;;;23.90;77.30;;;;;;5074677;28;20352;-69
2022/07/12 12:44:56;;;;;;;;;;;23.70;77.50;;;;;;5073540;28;19912;-72
2022/07/12 12:47:30;;;;;;;;;;;23.70;80.00;;;;;;5074060;28;19954;-73
2022/07/12 12:49:57;;;;;;;;;;;24.00;78.60;;;;;;5074633;28;20015;-71
2022/07/12 12:52:23;;;;;;;;;;;24.30;77.60;;;;;;5074264;28;19904;-72
2022/07/12 12:54:49;;;;;;;;;;;24.30;75.60;;;;;;5074108;28;19905;-72
2022/07/12 12:57:15;;;;;;;;;;;24.50;77.70;;;;;;5074527;28;19911;-73
2022/07/12 12:59:40;;;;;;;;;;;24.70;77.00;;;;;;5074104;28;19999;-71
2022/07/12 13:02:07;;;;;;;;;;;24.90;76.40;;;;;;5073889;28;19909;-72
2022/07/12 13:04:33;;;;;;;;;;;24.90;76.80;;;;;;5074074;28;19904;-73
2022/07/12 13:06:59;;;;;;;;;;;25.10;75.10;;;;;;5074385;28;19904;-72
2022/07/12 13:09:25;;;;;;;;;;;25.00;71.60;;;;;;5074704;28;20280;-72
2022/07/12 13:11:51;;;;;;;;;;;24.70;71.20;;;;;;5073724;28;19936;-73
2022/07/12 13:14:17;;;;;;;;;;;24.40;73.90;;;;;;5072716;28;19967;-72
2022/07/12 13:16:42;;;;;;;;;;;24.40;76.30;;;;;;5072493;28;19909;-71
2022/07/12 13:19:08;;;;;;;;;;;24.40;73.40;;;;;;5073974;28;20418;-73
2022/07/12 13:21:33;;;;;;;;;;;24.40;74.00;;;;;;5073679;28;19908;-72
2022/07/12 13:23:59;;;;;;;;;;;24.50;73.50;;;;;;5073823;28;19905;-72
2022/07/12 13:26:26;;;;;;;;;;;24.60;75.60;;;;;;5073650;28;19904;-71
2022/07/12 13:28:52;;;;;;;;;;;24.70;74.10;;;;;;5073880;28;19905;-73
2022/07/12 13:31:18;;;;;;;;;;;24.80;72.60;;;;;;5073632;28;19911;-74
2022/07/12 13:33:43;;;;;;;;;;;24.80;73.20;;;;;;5073344;28;19908;-72
2022/07/12 13:36:09;;;;;;;;;;;24.70;72.00;;;;;;5073562;28;19990;-72
2022/07/12 13:38:35;;;;;;;;;;;24.70;72.60;;;;;;5073560;28;19904;-72
2022/07/12 13:41:00;;;;;;;;;;;24.60;71.80;;;;;;5073425;28;20308;-72
2022/07/12 13:43:26;;;;;;;;;;;24.50;71.50;;;;;;5073717;28;19904;-73
2022/07/12 13:45:51;;;;;;;;;;;24.60;71.50;;;;;;5073362;28;19904;-71
2022/07/12 13:48:18;;;;;;;;;;;24.70;71.30;;;;;;5073416;28;19909;-71
2022/07/12 13:50:44;;;;;;;;;;;24.90;74.00;;;;;;5073352;28;19905;-72
2022/07/12 13:53:10;;;;;;;;;;;24.90;71.30;;;;;;5073331;28;19957;-72
2022/07/12 13:55:36;;;;;;;;;;;24.90;69.70;;;;;;5073924;28;19962;-73
2022/07/12 13:58:06;;;;;;;;;;;24.50;70.40;;;;;;5077389;28;19908;-72
2022/07/12 14:00:31;;;;;;;;;;;24.50;72.10;;;;;;5077101;28;19944;-72
2022/07/12 14:02:57;;;;;;;;;;;24.70;72.10;;;;;;5077417;28;19954;-73
2022/07/12 14:05:22;;;;;;;;;;;24.70;70.90;;;;;;5077045;28;19904;-72
2022/07/12 14:07:48;;;;;;;;;;;24.90;70.10;;;;;;5077086;28;19911;-70
2022/07/12 14:10:14;;;;;;;;;;;24.80;69.50;;;;;;5077068;28;19911;-69
2022/07/12 14:12:40;;;;;;;;;;;24.50;70.70;;;;;;5076991;28;19904;-69
2022/07/12 14:17:44;;;;;;;;;;;24.40;71.20;;;;;;5076970;28;19916;-73
2022/07/12 14:20:14;;;;;;;;;;;24.20;69.70;;;;;;5076730;28;19908;-72
2022/07/12 14:22:39;;;;;;;;;;;23.80;72.60;;;;;;5076782;28;19904;-72
2022/07/12 14:25:06;;;;;;;;;;;23.50;72.30;;;;;;5076639;28;19911;-73